createdAt,value
2017-10-09T00:00:23.799Z,10.1
2017-10-09T00:01:26.222Z,10.1
2017-10-09T00:02:28.644Z,10.1
2017-10-09T00:03:31.414Z,10.1
2017-10-09T00:04:33.831Z,10.1
2017-10-09T00:05:36.256Z,10.1
2017-10-09T00:06:38.693Z,10.1
2017-10-09T00:07:41.114Z,10.1
2017-10-09T00:08:43.533Z,10.1
2017-10-09T00:09:45.949Z,10.2
2017-10-09T00:10:48.366Z,10.2
2017-10-09T00:11:50.793Z,10.1
2017-10-09T00:12:53.209Z,10.1
2017-10-09T00:13:55.629Z,10.1
2017-10-09T00:14:58.048Z,10.1
2017-10-09T00:16:00.482Z,10.1
2017-10-09T00:17:02.905Z,10.1
2017-10-09T00:18:05.671Z,10
2017-10-09T00:19:08.093Z,10.1
2017-10-09T00:20:10.515Z,10
2017-10-09T00:21:12.937Z,10
2017-10-09T00:22:15.358Z,10
2017-10-09T00:23:17.771Z,10
2017-10-09T00:24:20.538Z,10
2017-10-09T00:25:22.955Z,10
2017-10-09T00:26:25.375Z,10
2017-10-09T00:27:27.801Z,10
2017-10-09T00:28:30.230Z,10
2017-10-09T00:29:32.651Z,10
2017-10-09T00:30:35.079Z,10
2017-10-09T00:31:37.499Z,10
2017-10-09T00:32:39.911Z,10
2017-10-09T00:33:42.334Z,10
2017-10-09T00:34:44.754Z,10
2017-10-09T00:35:47.175Z,10
2017-10-09T00:36:49.599Z,10
2017-10-09T00:37:52.033Z,10
2017-10-09T00:38:54.443Z,10
2017-10-09T00:39:56.874Z,10
2017-10-09T00:40:59.290Z,10
2017-10-09T00:42:01.719Z,10
2017-10-09T00:43:04.142Z,10
2017-10-09T00:44:06.912Z,9.9
2017-10-09T00:45:09.329Z,9.9
2017-10-09T00:46:11.756Z,9.9
2017-10-09T00:47:14.174Z,9.9
2017-10-09T00:48:16.939Z,9.9
2017-10-09T00:49:19.362Z,9.9
2017-10-09T00:50:21.792Z,9.9
2017-10-09T00:51:24.204Z,9.9
2017-10-09T00:52:26.625Z,9.9
2017-10-09T00:53:29.048Z,9.8
2017-10-09T00:54:31.468Z,9.8
2017-10-09T00:55:33.898Z,9.8
2017-10-09T00:56:36.318Z,9.8
2017-10-09T00:57:38.740Z,9.8
2017-10-09T00:58:41.176Z,9.8
2017-10-09T00:59:43.603Z,9.8
2017-10-09T01:00:46.019Z,9.8
2017-10-09T01:01:48.448Z,9.8
2017-10-09T01:02:50.874Z,9.8
2017-10-09T01:03:53.278Z,9.9
2017-10-09T01:04:55.704Z,9.9
2017-10-09T01:05:58.128Z,9.8
2017-10-09T01:07:00.554Z,9.8
2017-10-09T01:08:02.975Z,9.8
2017-10-09T01:09:05.397Z,9.8
2017-10-09T01:10:07.819Z,9.8
2017-10-09T01:11:10.250Z,9.8
2017-10-09T01:12:12.664Z,9.8
2017-10-09T01:13:15.087Z,9.8
2017-10-09T01:14:17.503Z,9.8
2017-10-09T01:15:19.928Z,9.9
2017-10-09T01:16:22.682Z,9.8
2017-10-09T01:17:25.110Z,9.9
2017-10-09T01:18:27.527Z,9.8
2017-10-09T01:19:29.950Z,9.9
2017-10-09T01:20:32.370Z,9.9
2017-10-09T01:21:34.800Z,9.9
2017-10-09T01:22:37.208Z,9.8
2017-10-09T01:23:39.645Z,9.8
2017-10-09T01:24:42.055Z,9.8
2017-10-09T01:25:44.475Z,9.8
2017-10-09T01:26:46.895Z,9.8
2017-10-09T01:27:49.318Z,9.8
2017-10-09T01:28:51.741Z,9.8
2017-10-09T01:29:54.173Z,9.8
2017-10-09T01:30:56.597Z,9.8
2017-10-09T01:31:59.014Z,9.8
2017-10-09T01:33:01.440Z,9.8
2017-10-09T01:34:03.856Z,9.8
2017-10-09T01:35:06.272Z,9.8
2017-10-09T01:36:08.698Z,9.8
2017-10-09T01:37:11.464Z,9.8
2017-10-09T01:38:14.220Z,9.8
2017-10-09T01:39:16.651Z,9.8
2017-10-09T01:40:19.071Z,9.7
2017-10-09T01:41:21.490Z,9.8
2017-10-09T01:42:23.913Z,9.8
2017-10-09T01:43:26.334Z,9.8
2017-10-09T01:44:28.758Z,9.8
2017-10-09T01:45:31.181Z,9.8
2017-10-09T01:46:33.590Z,9.7
2017-10-09T01:47:36.011Z,9.7
2017-10-09T01:48:38.438Z,9.7
2017-10-09T01:49:40.849Z,9.7
2017-10-09T01:50:43.264Z,9.7
2017-10-09T01:51:45.690Z,9.7
2017-10-09T01:52:48.113Z,9.7
2017-10-09T01:53:50.538Z,9.7
2017-10-09T01:54:53.304Z,9.6
2017-10-09T01:55:55.713Z,9.6
2017-10-09T01:56:58.143Z,9.6
2017-10-09T01:58:00.919Z,9.6
2017-10-09T01:59:03.335Z,9.7
2017-10-09T02:00:05.756Z,9.6
2017-10-09T02:01:08.179Z,9.6
2017-10-09T02:02:10.602Z,9.6
2017-10-09T02:03:13.014Z,9.6
2017-10-09T02:04:15.441Z,9.6
2017-10-09T02:05:17.868Z,9.6
2017-10-09T02:06:20.289Z,9.6
2017-10-09T02:07:22.702Z,9.6
2017-10-09T02:08:25.118Z,9.6
2017-10-09T02:09:27.538Z,9.6
2017-10-09T02:10:29.966Z,9.6
2017-10-09T02:11:32.385Z,9.6
2017-10-09T02:12:34.804Z,9.6
2017-10-09T02:13:37.230Z,9.6
2017-10-09T02:14:39.657Z,9.6
2017-10-09T02:15:42.074Z,9.6
2017-10-09T02:16:44.497Z,9.6
2017-10-09T02:17:46.909Z,9.6
2017-10-09T02:18:49.335Z,9.6
2017-10-09T02:19:51.755Z,9.6
2017-10-09T02:20:54.182Z,9.5
2017-10-09T02:21:56.600Z,9.6
2017-10-09T02:22:59.021Z,9.5
2017-10-09T02:24:01.448Z,9.5
2017-10-09T02:25:03.878Z,9.5
2017-10-09T02:26:06.293Z,9.5
2017-10-09T02:27:09.084Z,9.5
2017-10-09T02:28:11.840Z,9.5
2017-10-09T02:29:14.272Z,9.5
2017-10-09T02:30:16.700Z,9.5
2017-10-09T02:31:19.449Z,9.5
2017-10-09T02:32:21.871Z,9.5
2017-10-09T02:33:24.293Z,9.5
2017-10-09T02:34:27.060Z,9.5
2017-10-09T02:35:29.483Z,9.5
2017-10-09T02:36:31.905Z,9.5
2017-10-09T02:37:34.322Z,9.5
2017-10-09T02:38:36.746Z,9.5
2017-10-09T02:39:39.172Z,9.5
2017-10-09T02:40:41.587Z,9.5
2017-10-09T02:41:44.360Z,9.5
2017-10-09T02:42:46.784Z,9.5
2017-10-09T02:43:49.570Z,9.4
2017-10-09T02:44:52.682Z,9.5
2017-10-09T02:45:55.436Z,9.4
2017-10-09T02:46:57.854Z,9.4
2017-10-09T02:48:00.275Z,9.4
2017-10-09T02:49:02.702Z,9.4
2017-10-09T02:50:05.123Z,9.4
2017-10-09T02:51:07.544Z,9.4
2017-10-09T02:52:10.301Z,9.4
2017-10-09T02:53:13.073Z,9.4
2017-10-09T02:54:15.494Z,9.4
2017-10-09T02:55:17.911Z,9.4
2017-10-09T02:56:20.327Z,9.4
2017-10-09T02:57:22.744Z,9.4
2017-10-09T02:58:25.169Z,9.4
2017-10-09T02:59:27.591Z,9.4
2017-10-09T03:00:30.020Z,9.4
2017-10-09T03:01:32.446Z,9.4
2017-10-09T03:02:34.857Z,9.3
2017-10-09T03:03:37.275Z,9.3
2017-10-09T03:04:39.706Z,9.4
2017-10-09T03:05:42.129Z,9.4
2017-10-09T03:06:44.554Z,9.4
2017-10-09T03:07:46.975Z,9.4
2017-10-09T03:08:49.395Z,9.4
2017-10-09T03:09:51.825Z,9.4
2017-10-09T03:10:54.247Z,9.4
2017-10-09T03:11:56.661Z,9.4
2017-10-09T03:12:59.084Z,9.4
2017-10-09T03:14:01.512Z,9.4
2017-10-09T03:15:03.940Z,9.3
2017-10-09T03:16:07.070Z,9.3
2017-10-09T03:17:09.487Z,9.4
2017-10-09T03:18:11.911Z,9.3
2017-10-09T03:19:14.343Z,9.3
2017-10-09T03:20:16.774Z,9.3
2017-10-09T03:21:19.183Z,9.3
2017-10-09T03:22:21.602Z,9.3
2017-10-09T03:23:24.020Z,9.3
2017-10-09T03:24:26.450Z,9.3
2017-10-09T03:25:28.871Z,9.3
2017-10-09T03:26:31.285Z,9.3
2017-10-09T03:27:33.705Z,9.3
2017-10-09T03:28:36.132Z,9.2
2017-10-09T03:29:38.561Z,9.2
2017-10-09T03:30:40.980Z,9.2
2017-10-09T03:31:43.743Z,9.3
2017-10-09T03:32:46.163Z,9.3
2017-10-09T03:33:48.583Z,9.2
2017-10-09T03:34:51.010Z,9.3
2017-10-09T03:35:53.444Z,9.3
2017-10-09T03:36:55.855Z,9.3
2017-10-09T03:37:58.289Z,9.3
2017-10-09T03:39:00.709Z,9.3
2017-10-09T03:40:03.134Z,9.3
2017-10-09T03:41:05.557Z,9.3
2017-10-09T03:42:07.979Z,9.3
2017-10-09T03:43:10.736Z,9.3
2017-10-09T03:44:13.169Z,9.4
2017-10-09T03:45:15.598Z,9.4
2017-10-09T03:46:18.019Z,9.4
2017-10-09T03:47:20.446Z,9.4
2017-10-09T03:48:22.860Z,9.4
2017-10-09T03:49:25.282Z,9.4
2017-10-09T03:50:27.707Z,9.4
2017-10-09T03:51:30.114Z,9.4
2017-10-09T03:52:32.532Z,9.4
2017-10-09T03:53:34.955Z,9.4
2017-10-09T03:54:37.715Z,9.4
2017-10-09T03:55:40.139Z,9.4
2017-10-09T03:56:42.560Z,9.4
2017-10-09T03:57:44.971Z,9.4
2017-10-09T03:58:47.404Z,9.4
2017-10-09T03:59:49.818Z,9.4
2017-10-09T04:00:52.240Z,9.4
2017-10-09T04:01:54.668Z,9.4
2017-10-09T04:02:57.090Z,9.4
2017-10-09T04:03:59.511Z,9.3
2017-10-09T04:05:01.938Z,9.3
2017-10-09T04:06:04.358Z,9.3
2017-10-09T04:07:06.782Z,9.3
2017-10-09T04:08:09.543Z,9.2
2017-10-09T04:09:11.954Z,9.2
2017-10-09T04:10:14.379Z,9.2
2017-10-09T04:11:16.805Z,9.2
2017-10-09T04:12:19.220Z,9.2
2017-10-09T04:13:21.643Z,9.2
2017-10-09T04:14:24.052Z,9.2
2017-10-09T04:15:26.473Z,9.2
2017-10-09T04:16:28.906Z,9.1
2017-10-09T04:17:31.328Z,9.1
2017-10-09T04:18:33.743Z,9.1
2017-10-09T04:19:36.162Z,9.1
2017-10-09T04:20:38.576Z,9
2017-10-09T04:21:41.004Z,9
2017-10-09T04:22:43.769Z,9
2017-10-09T04:23:46.184Z,9
2017-10-09T04:24:48.605Z,9
2017-10-09T04:25:51.036Z,9
2017-10-09T04:26:53.791Z,9
2017-10-09T04:27:56.210Z,9
2017-10-09T04:28:58.632Z,9
2017-10-09T04:30:01.054Z,9
2017-10-09T04:31:03.475Z,8.9
2017-10-09T04:32:05.903Z,9
2017-10-09T04:33:08.323Z,9
2017-10-09T04:34:10.750Z,8.9
2017-10-09T04:35:13.166Z,8.9
2017-10-09T04:36:15.599Z,8.9
2017-10-09T04:37:18.014Z,8.9
2017-10-09T04:38:20.777Z,8.9
2017-10-09T04:39:23.198Z,8.9
2017-10-09T04:40:25.611Z,8.9
2017-10-09T04:41:28.028Z,8.9
2017-10-09T04:42:31.141Z,8.8
2017-10-09T04:43:33.556Z,8.8
2017-10-09T04:44:35.975Z,8.8
2017-10-09T04:45:38.392Z,8.8
2017-10-09T04:46:40.822Z,8.8
2017-10-09T04:47:43.238Z,8.8
2017-10-09T04:48:45.664Z,8.8
2017-10-09T04:49:48.437Z,8.8
2017-10-09T04:50:50.862Z,8.8
2017-10-09T04:51:53.621Z,8.8
2017-10-09T04:52:56.043Z,8.8
2017-10-09T04:53:58.471Z,8.7
2017-10-09T04:55:00.889Z,8.7
2017-10-09T04:56:03.655Z,8.7
2017-10-09T04:57:06.079Z,8.7
2017-10-09T04:58:08.504Z,8.7
2017-10-09T04:59:10.918Z,8.8
2017-10-09T05:00:13.347Z,8.7
2017-10-09T05:01:15.768Z,8.7
2017-10-09T05:02:18.189Z,8.7
2017-10-09T05:03:20.612Z,8.7
2017-10-09T05:04:23.032Z,8.7
2017-10-09T05:05:25.447Z,8.7
2017-10-09T05:06:27.870Z,8.7
2017-10-09T05:07:30.286Z,8.7
2017-10-09T05:08:32.703Z,8.7
2017-10-09T05:09:35.119Z,8.7
2017-10-09T05:10:37.543Z,8.7
2017-10-09T05:11:39.986Z,8.7
2017-10-09T05:12:42.419Z,8.7
2017-10-09T05:13:44.824Z,8.7
2017-10-09T05:14:47.248Z,8.7
2017-10-09T05:15:49.671Z,8.7
2017-10-09T05:16:52.089Z,8.7
2017-10-09T05:17:54.511Z,8.7
2017-10-09T05:18:56.928Z,8.7
2017-10-09T05:19:59.347Z,8.7
2017-10-09T05:21:01.778Z,8.7
2017-10-09T05:22:04.190Z,8.7
2017-10-09T05:23:06.611Z,8.7
2017-10-09T05:24:09.027Z,8.6
2017-10-09T05:25:11.451Z,8.6
2017-10-09T05:26:13.871Z,8.6
2017-10-09T05:27:16.289Z,8.6
2017-10-09T05:28:18.713Z,8.6
2017-10-09T05:29:21.138Z,8.6
2017-10-09T05:30:23.888Z,8.6
2017-10-09T05:31:26.307Z,8.6
2017-10-09T05:32:28.739Z,8.7
2017-10-09T05:33:31.161Z,8.7
2017-10-09T05:34:33.572Z,8.6
2017-10-09T05:35:35.994Z,8.6
2017-10-09T05:36:38.417Z,8.7
2017-10-09T05:37:40.837Z,8.6
2017-10-09T05:38:43.258Z,8.7
2017-10-09T05:39:45.669Z,8.6
2017-10-09T05:40:48.442Z,8.6
2017-10-09T05:41:50.877Z,8.6
2017-10-09T05:42:53.292Z,8.6
2017-10-09T05:43:55.707Z,8.6
2017-10-09T05:44:58.114Z,8.6
2017-10-09T05:46:00.534Z,8.6
2017-10-09T05:47:02.988Z,8.6
2017-10-09T05:48:05.385Z,8.6
2017-10-09T05:49:07.794Z,8.6
2017-10-09T05:50:10.214Z,8.6
2017-10-09T05:51:12.636Z,8.5
2017-10-09T05:52:15.063Z,8.5
2017-10-09T05:53:17.480Z,8.5
2017-10-09T05:54:19.889Z,8.5
2017-10-09T05:55:22.308Z,8.5
2017-10-09T05:56:24.738Z,8.5
2017-10-09T05:57:27.147Z,8.5
2017-10-09T05:58:29.572Z,8.5
2017-10-09T05:59:31.996Z,8.5
2017-10-09T06:00:34.424Z,8.5
2017-10-09T06:01:36.836Z,8.5
2017-10-09T06:02:39.251Z,8.5
2017-10-09T06:03:42.016Z,8.5
2017-10-09T06:04:44.443Z,8.5
2017-10-09T06:05:46.854Z,8.5
2017-10-09T06:06:49.271Z,8.5
2017-10-09T06:07:51.693Z,8.5
2017-10-09T06:08:54.120Z,8.5
2017-10-09T06:09:56.539Z,8.6
2017-10-09T06:10:58.960Z,8.6
2017-10-09T06:12:01.381Z,8.6
2017-10-09T06:13:03.812Z,8.6
2017-10-09T06:14:06.236Z,8.6
2017-10-09T06:15:08.656Z,8.6
2017-10-09T06:16:11.077Z,8.6
2017-10-09T06:17:13.507Z,8.6
2017-10-09T06:18:15.921Z,8.7
2017-10-09T06:19:18.341Z,8.7
2017-10-09T06:20:21.101Z,8.7
2017-10-09T06:21:23.863Z,8.7
2017-10-09T06:22:26.302Z,8.8
2017-10-09T06:23:28.724Z,8.8
2017-10-09T06:24:31.131Z,8.8
2017-10-09T06:25:33.556Z,8.8
2017-10-09T06:26:35.979Z,8.8
2017-10-09T06:27:38.388Z,8.8
2017-10-09T06:28:40.810Z,8.9
2017-10-09T06:29:43.243Z,8.9
2017-10-09T06:30:45.661Z,8.9
2017-10-09T06:31:48.076Z,8.9
2017-10-09T06:32:50.500Z,8.9
2017-10-09T06:33:52.919Z,9
2017-10-09T06:34:55.347Z,9
2017-10-09T06:35:57.766Z,9
2017-10-09T06:37:00.186Z,9
2017-10-09T06:38:02.958Z,9.1
2017-10-09T06:39:05.377Z,9.1
2017-10-09T06:40:07.805Z,9.1
2017-10-09T06:41:10.224Z,9.1
2017-10-09T06:42:12.652Z,9.1
2017-10-09T06:43:15.071Z,9.2
2017-10-09T06:44:17.491Z,9.2
2017-10-09T06:45:20.254Z,9.2
2017-10-09T06:46:22.675Z,9.2
2017-10-09T06:47:25.097Z,9.2
2017-10-09T06:48:27.526Z,9.3
2017-10-09T06:49:29.936Z,9.3
2017-10-09T06:50:32.365Z,9.3
2017-10-09T06:51:34.793Z,9.3
2017-10-09T06:52:37.212Z,9.3
2017-10-09T06:53:39.639Z,9.4
2017-10-09T06:54:42.058Z,9.4
2017-10-09T06:55:44.470Z,9.4
2017-10-09T06:56:46.896Z,9.5
2017-10-09T06:57:49.312Z,9.5
2017-10-09T06:58:51.732Z,9.5
2017-10-09T06:59:54.147Z,9.5
2017-10-09T07:00:56.581Z,9.6
2017-10-09T07:01:59.002Z,9.6
2017-10-09T07:03:01.417Z,9.6
2017-10-09T07:04:03.851Z,9.6
2017-10-09T07:05:06.555Z,9.7
2017-10-09T07:06:09.545Z,9.7
2017-10-09T07:07:11.978Z,9.7
2017-10-09T07:08:14.395Z,9.7
2017-10-09T07:09:16.818Z,9.8
2017-10-09T07:10:19.250Z,9.8
2017-10-09T07:11:21.669Z,9.9
2017-10-09T07:12:24.101Z,9.9
2017-10-09T07:13:26.519Z,10
2017-10-09T07:14:28.940Z,10
2017-10-09T07:15:31.367Z,10
2017-10-09T07:16:33.791Z,10.1
2017-10-09T07:17:36.551Z,10.1
2017-10-09T07:18:38.982Z,10.2
2017-10-09T07:19:41.400Z,10.2
2017-10-09T07:20:43.828Z,10.3
2017-10-09T07:21:46.596Z,10.3
2017-10-09T07:22:49.028Z,10.4
2017-10-09T07:23:51.449Z,10.4
2017-10-09T07:24:53.870Z,10.5
2017-10-09T07:25:56.296Z,10.5
2017-10-09T07:26:58.716Z,10.6
2017-10-09T07:28:01.134Z,10.7
2017-10-09T07:29:03.567Z,10.7
2017-10-09T07:30:05.992Z,10.8
2017-10-09T07:31:08.419Z,11
2017-10-09T07:32:10.838Z,11.1
2017-10-09T07:33:13.259Z,11.3
2017-10-09T07:34:15.682Z,11.4
2017-10-09T07:35:18.111Z,11.6
2017-10-09T07:36:20.862Z,11.8
2017-10-09T07:37:23.293Z,12
2017-10-09T07:38:25.723Z,12.3
2017-10-09T07:39:28.148Z,12.5
2017-10-09T07:40:30.570Z,12.7
2017-10-09T07:41:32.990Z,12.9
2017-10-09T07:42:35.415Z,13.1
2017-10-09T07:43:37.850Z,13.3
2017-10-09T07:44:40.285Z,13.6
2017-10-09T07:45:42.699Z,13.8
2017-10-09T07:46:45.130Z,14
2017-10-09T07:47:47.937Z,14.2
2017-10-09T07:48:50.363Z,14.4
2017-10-09T07:49:52.795Z,14.7
2017-10-09T07:50:55.224Z,14.9
2017-10-09T07:51:57.649Z,15.1
2017-10-09T07:53:00.101Z,15.3
2017-10-09T07:54:02.531Z,15.4
2017-10-09T07:55:04.945Z,15.4
2017-10-09T07:56:07.379Z,15.5
2017-10-09T07:57:09.804Z,15.5
2017-10-09T07:58:12.246Z,15.5
2017-10-09T07:59:15.005Z,15.5
2017-10-09T08:00:17.446Z,15.5
2017-10-09T08:01:20.205Z,15.6
2017-10-09T08:02:22.646Z,15.6
2017-10-09T08:03:25.078Z,15.6
2017-10-09T08:04:27.510Z,15.7
2017-10-09T08:05:29.942Z,15.8
2017-10-09T08:06:32.380Z,15.8
2017-10-09T08:07:34.812Z,15.9
2017-10-09T08:08:37.247Z,15.9
2017-10-09T08:09:39.666Z,16
2017-10-09T08:10:42.103Z,16
2017-10-09T08:11:44.516Z,16
2017-10-09T08:12:46.946Z,16
2017-10-09T08:13:49.379Z,16
2017-10-09T08:14:51.811Z,16
2017-10-09T08:15:54.242Z,16
2017-10-09T08:16:56.678Z,16
2017-10-09T08:17:59.439Z,16.1
2017-10-09T08:19:01.880Z,16.1
2017-10-09T08:20:04.312Z,16.1
2017-10-09T08:21:06.732Z,16
2017-10-09T08:22:09.164Z,16
2017-10-09T08:23:11.937Z,16
2017-10-09T08:24:14.370Z,16
2017-10-09T08:25:16.799Z,16
2017-10-09T08:26:19.239Z,16
2017-10-09T08:27:21.671Z,16
2017-10-09T08:28:24.434Z,16
2017-10-09T08:29:26.863Z,15.9
2017-10-09T08:30:29.300Z,15.9
2017-10-09T08:31:31.722Z,15.9
2017-10-09T08:32:34.159Z,15.9
2017-10-09T08:33:36.573Z,15.9
2017-10-09T08:34:39.004Z,15.9
2017-10-09T08:35:41.445Z,15.9
2017-10-09T08:36:43.878Z,15.9
2017-10-09T08:37:46.306Z,15.9
2017-10-09T08:38:48.733Z,15.9
2017-10-09T08:39:51.170Z,15.9
2017-10-09T08:40:53.603Z,15.9
2017-10-09T08:41:56.032Z,15.9
2017-10-09T08:42:58.453Z,15.9
2017-10-09T08:44:00.885Z,15.8
2017-10-09T08:45:03.324Z,15.8
2017-10-09T08:46:05.754Z,15.8
2017-10-09T08:47:08.188Z,15.8
2017-10-09T08:48:10.621Z,15.8
2017-10-09T08:49:13.049Z,15.7
2017-10-09T08:50:15.481Z,15.7
2017-10-09T08:51:17.908Z,15.8
2017-10-09T08:52:20.332Z,15.8
2017-10-09T08:53:22.767Z,15.8
2017-10-09T08:54:25.197Z,15.8
2017-10-09T08:55:27.627Z,15.8
2017-10-09T08:56:30.064Z,15.9
2017-10-09T08:57:32.510Z,15.9
2017-10-09T08:58:34.940Z,16
2017-10-09T08:59:37.360Z,16
2017-10-09T09:00:39.791Z,16
2017-10-09T09:01:42.227Z,16.1
2017-10-09T09:02:44.654Z,16.1
2017-10-09T09:03:47.080Z,16.1
2017-10-09T09:04:49.514Z,16.2
2017-10-09T09:05:54.077Z,16.2
2017-10-09T09:06:56.524Z,16.2
2017-10-09T09:07:58.952Z,16.2
2017-10-09T09:09:01.379Z,16.3
2017-10-09T09:10:04.176Z,16.3
2017-10-09T09:11:06.607Z,16.4
2017-10-09T09:12:09.033Z,16.5
2017-10-09T09:13:11.465Z,16.6
2017-10-09T09:14:13.917Z,16.6
2017-10-09T09:15:16.348Z,16.7
2017-10-09T09:16:18.796Z,16.7
2017-10-09T09:17:21.222Z,16.8
2017-10-09T09:18:23.648Z,16.9
2017-10-09T09:19:26.084Z,17.1
2017-10-09T09:20:28.511Z,17.2
2017-10-09T09:21:30.954Z,17.3
2017-10-09T09:22:33.383Z,17.3
2017-10-09T09:23:35.808Z,17.4
2017-10-09T09:24:38.241Z,17.4
2017-10-09T09:25:40.682Z,17.5
2017-10-09T09:26:43.109Z,17.5
2017-10-09T09:27:45.541Z,17.5
2017-10-09T09:28:47.978Z,17.5
2017-10-09T09:29:50.754Z,17.4
2017-10-09T09:30:53.182Z,17.3
2017-10-09T09:31:55.655Z,17.2
2017-10-09T09:32:58.084Z,17.1
2017-10-09T09:34:00.522Z,17
2017-10-09T09:35:02.960Z,16.9
2017-10-09T09:36:05.392Z,16.8
2017-10-09T09:37:07.831Z,16.8
2017-10-09T09:38:10.612Z,16.8
2017-10-09T09:39:13.036Z,16.8
2017-10-09T09:40:15.463Z,16.8
2017-10-09T09:41:17.891Z,16.8
2017-10-09T09:42:20.317Z,16.8
2017-10-09T09:43:22.739Z,16.8
2017-10-09T09:44:25.182Z,16.8
2017-10-09T09:45:27.615Z,16.8
2017-10-09T09:46:30.047Z,17
2017-10-09T09:47:32.483Z,17.1
2017-10-09T09:48:34.917Z,17.2
2017-10-09T09:49:37.349Z,17.5
2017-10-09T09:50:39.787Z,17.7
2017-10-09T09:51:42.213Z,18
2017-10-09T09:52:44.645Z,18.1
2017-10-09T09:53:47.420Z,18.2
2017-10-09T09:54:49.847Z,18.3
2017-10-09T09:55:52.281Z,18.3
2017-10-09T09:56:54.710Z,18.3
2017-10-09T09:57:57.143Z,18.4
2017-10-09T09:58:59.566Z,18.4
2017-10-09T10:00:02.002Z,18.3
2017-10-09T10:01:04.446Z,18.3
2017-10-09T10:02:06.880Z,18.2
2017-10-09T10:03:09.314Z,18.2
2017-10-09T10:04:11.758Z,18.1
2017-10-09T10:05:14.192Z,18
2017-10-09T10:06:16.634Z,18
2017-10-09T10:07:19.068Z,18
2017-10-09T10:08:21.483Z,17.9
2017-10-09T10:09:24.308Z,17.9
2017-10-09T10:10:27.089Z,17.8
2017-10-09T10:11:29.539Z,17.8
2017-10-09T10:12:31.971Z,17.8
2017-10-09T10:13:34.386Z,17.8
2017-10-09T10:14:36.819Z,17.7
2017-10-09T10:15:39.605Z,17.6
2017-10-09T10:16:42.035Z,17.6
2017-10-09T10:17:44.810Z,17.6
2017-10-09T10:18:47.242Z,17.6
2017-10-09T10:19:49.672Z,17.6
2017-10-09T10:20:52.113Z,17.6
2017-10-09T10:21:54.918Z,17.6
2017-10-09T10:22:57.339Z,17.6
2017-10-09T10:23:59.772Z,17.5
2017-10-09T10:25:02.212Z,17.5
2017-10-09T10:26:04.985Z,17.5
2017-10-09T10:27:07.410Z,17.4
2017-10-09T10:28:09.850Z,17.4
2017-10-09T10:29:12.283Z,17.4
2017-10-09T10:30:14.703Z,17.4
2017-10-09T10:31:17.140Z,17.4
2017-10-09T10:32:19.901Z,17.4
2017-10-09T10:33:22.339Z,17.4
2017-10-09T10:34:25.109Z,17.4
2017-10-09T10:35:27.547Z,17.5
2017-10-09T10:36:29.976Z,17.5
2017-10-09T10:37:32.408Z,17.5
2017-10-09T10:38:34.835Z,17.5
2017-10-09T10:39:37.272Z,17.6
2017-10-09T10:40:39.698Z,17.6
2017-10-09T10:41:42.126Z,17.7
2017-10-09T10:42:44.899Z,17.7
2017-10-09T10:43:47.325Z,17.8
2017-10-09T10:44:49.755Z,17.9
2017-10-09T10:45:52.192Z,17.9
2017-10-09T10:46:54.619Z,17.9
2017-10-09T10:47:57.055Z,18
2017-10-09T10:48:59.491Z,18
2017-10-09T10:50:01.932Z,18
2017-10-09T10:51:04.364Z,18
2017-10-09T10:52:06.797Z,18.1
2017-10-09T10:53:09.228Z,18.1
2017-10-09T10:54:11.661Z,18.1
2017-10-09T10:55:14.096Z,18.1
2017-10-09T10:56:16.539Z,18.1
2017-10-09T10:57:18.966Z,18.1
2017-10-09T10:58:21.404Z,18.1
2017-10-09T10:59:23.829Z,18.1
2017-10-09T11:00:26.262Z,18.1
2017-10-09T11:01:28.688Z,18.1
2017-10-09T11:02:31.466Z,18.2
2017-10-09T11:03:33.891Z,18.2
2017-10-09T11:04:36.325Z,18.3
2017-10-09T11:05:38.756Z,18.3
2017-10-09T11:06:41.192Z,18.4
2017-10-09T11:07:43.618Z,18.4
2017-10-09T11:08:46.051Z,18.4
2017-10-09T11:09:48.481Z,18.6
2017-10-09T11:10:50.924Z,18.8
2017-10-09T11:11:53.350Z,19
2017-10-09T11:12:55.781Z,19.3
2017-10-09T11:13:58.210Z,19.6
2017-10-09T11:15:00.648Z,19.9
2017-10-09T11:16:03.421Z,20
2017-10-09T11:17:05.864Z,20.2
2017-10-09T11:18:08.295Z,20.2
2017-10-09T11:19:10.737Z,20.2
2017-10-09T11:20:13.165Z,20.2
2017-10-09T11:21:15.604Z,20.2
2017-10-09T11:22:18.033Z,20.1
2017-10-09T11:23:20.468Z,20.1
2017-10-09T11:24:22.913Z,20.1
2017-10-09T11:25:25.350Z,20.2
2017-10-09T11:26:27.789Z,20.3
2017-10-09T11:27:30.222Z,20.4
2017-10-09T11:28:32.992Z,20.4
2017-10-09T11:29:35.428Z,20.4
2017-10-09T11:30:37.870Z,20.4
2017-10-09T11:31:40.291Z,20.3
2017-10-09T11:32:42.727Z,20.3
2017-10-09T11:33:45.169Z,20.2
2017-10-09T11:34:47.609Z,20.1
2017-10-09T11:35:50.044Z,20.1
2017-10-09T11:36:52.485Z,20
2017-10-09T11:37:54.915Z,20
2017-10-09T11:38:57.363Z,20
2017-10-09T11:39:59.799Z,19.9
2017-10-09T11:41:02.235Z,19.9
2017-10-09T11:42:04.675Z,19.9
2017-10-09T11:43:07.115Z,19.8
2017-10-09T11:44:09.551Z,19.8
2017-10-09T11:45:12.334Z,19.7
2017-10-09T11:46:14.757Z,19.6
2017-10-09T11:47:17.195Z,19.6
2017-10-09T11:48:19.635Z,19.5
2017-10-09T11:49:22.075Z,19.5
2017-10-09T11:50:24.496Z,19.4
2017-10-09T11:51:26.936Z,19.2
2017-10-09T11:52:29.372Z,19.2
2017-10-09T11:53:31.814Z,19.1
2017-10-09T11:54:34.258Z,19
2017-10-09T11:55:36.694Z,18.9
2017-10-09T11:56:39.122Z,18.8
2017-10-09T11:57:41.567Z,18.7
2017-10-09T11:58:44.003Z,18.6
2017-10-09T11:59:46.437Z,18.5
2017-10-09T12:00:49.211Z,18.5
2017-10-09T12:01:51.640Z,18.4
2017-10-09T12:02:54.070Z,18.3
2017-10-09T12:03:56.510Z,18.2
2017-10-09T12:04:58.939Z,18.1
2017-10-09T12:06:01.373Z,18.1
2017-10-09T12:07:03.808Z,18
2017-10-09T12:08:06.586Z,17.9
2017-10-09T12:09:09.012Z,17.9
2017-10-09T12:10:11.449Z,17.8
2017-10-09T12:11:13.878Z,17.8
2017-10-09T12:12:16.317Z,17.8
2017-10-09T12:13:18.750Z,17.8
2017-10-09T12:14:21.184Z,17.8
2017-10-09T12:15:23.954Z,17.8
2017-10-09T12:16:26.388Z,17.8
2017-10-09T12:17:28.821Z,17.8
2017-10-09T12:18:31.259Z,17.8
2017-10-09T12:19:33.677Z,17.8
2017-10-09T12:20:36.107Z,17.9
2017-10-09T12:21:38.887Z,17.9
2017-10-09T12:22:41.322Z,18
2017-10-09T12:23:44.100Z,18.1
2017-10-09T12:24:46.526Z,18.2
2017-10-09T12:25:48.957Z,18.3
2017-10-09T12:26:51.387Z,18.4
2017-10-09T12:27:53.823Z,18.4
2017-10-09T12:28:56.267Z,18.6
2017-10-09T12:29:58.695Z,18.7
2017-10-09T12:31:01.125Z,18.9
2017-10-09T12:32:03.558Z,19.1
2017-10-09T12:33:05.991Z,19.3
2017-10-09T12:34:08.423Z,19.5
2017-10-09T12:35:10.863Z,19.6
2017-10-09T12:36:13.629Z,19.8
2017-10-09T12:37:16.068Z,19.9
2017-10-09T12:38:18.508Z,19.9
2017-10-09T12:39:20.945Z,19.9
2017-10-09T12:40:23.380Z,19.9
2017-10-09T12:41:26.151Z,20
2017-10-09T12:42:28.934Z,19.9
2017-10-09T12:43:31.378Z,19.9
2017-10-09T12:44:34.186Z,20
2017-10-09T12:45:36.818Z,20.1
2017-10-09T12:46:39.253Z,20.3
2017-10-09T12:47:41.691Z,20.4
2017-10-09T12:48:44.128Z,20.5
2017-10-09T12:49:46.913Z,20.6
2017-10-09T12:50:49.392Z,20.7
2017-10-09T12:51:51.834Z,20.8
2017-10-09T12:52:54.276Z,20.9
2017-10-09T12:53:56.716Z,21.1
2017-10-09T12:54:59.138Z,21.2
2017-10-09T12:56:01.579Z,21.4
2017-10-09T12:57:04.026Z,21.6
2017-10-09T12:58:06.467Z,21.7
2017-10-09T12:59:08.907Z,21.9
2017-10-09T13:00:11.340Z,22
2017-10-09T13:01:13.779Z,22.1
2017-10-09T13:02:16.231Z,22.1
2017-10-09T13:03:18.668Z,22.2
2017-10-09T13:04:21.092Z,22.3
2017-10-09T13:05:23.550Z,22.3
2017-10-09T13:06:25.983Z,22.3
2017-10-09T13:07:28.434Z,22.3
2017-10-09T13:08:31.226Z,22.4
2017-10-09T13:09:33.656Z,22.5
2017-10-09T13:10:36.107Z,22.6
2017-10-09T13:11:38.862Z,22.6
2017-10-09T13:12:41.665Z,22.6
2017-10-09T13:13:44.324Z,22.5
2017-10-09T13:14:50.220Z,22.5
2017-10-09T13:15:55.727Z,22.4
2017-10-09T13:17:01.744Z,22.4
2017-10-09T13:18:06.139Z,22.5
2017-10-09T13:19:11.837Z,22.6
2017-10-09T13:20:18.275Z,22.6
2017-10-09T13:21:23.710Z,22.7
2017-10-09T13:22:28.028Z,22.7
2017-10-09T13:23:32.249Z,22.7
2017-10-09T13:24:37.006Z,22.6
2017-10-09T13:25:42.188Z,22.6
2017-10-09T13:26:47.419Z,22.6
2017-10-09T13:27:49.871Z,22.6
2017-10-09T13:28:52.374Z,22.6
2017-10-09T13:29:54.968Z,22.6
2017-10-09T13:30:57.648Z,22.6
2017-10-09T13:32:00.253Z,22.5
2017-10-09T13:33:02.928Z,22.5
2017-10-09T13:34:05.363Z,22.5
2017-10-09T13:35:08.153Z,22.4
2017-10-09T13:36:10.582Z,22.4
2017-10-09T13:37:13.029Z,22.3
2017-10-09T13:38:15.469Z,22.2
2017-10-09T13:39:17.906Z,22.1
2017-10-09T13:40:20.343Z,22.1
2017-10-09T13:41:22.780Z,22
2017-10-09T13:42:25.213Z,22
2017-10-09T13:43:27.657Z,22
2017-10-09T13:44:30.086Z,22
2017-10-09T13:45:32.530Z,21.9
2017-10-09T13:46:34.968Z,22
2017-10-09T13:47:37.410Z,22
2017-10-09T13:48:39.853Z,21.9
2017-10-09T13:49:42.316Z,21.9
2017-10-09T13:50:44.810Z,22
2017-10-09T13:51:47.257Z,22
2017-10-09T13:52:49.708Z,22.1
2017-10-09T13:53:52.155Z,22.1
2017-10-09T13:54:54.679Z,22.1
2017-10-09T13:55:57.278Z,22.1
2017-10-09T13:57:00.010Z,22.1
2017-10-09T13:58:02.697Z,22.1
2017-10-09T13:59:05.576Z,22
2017-10-09T14:00:08.054Z,22
2017-10-09T14:01:10.621Z,21.9
2017-10-09T14:02:13.266Z,21.9
2017-10-09T14:03:15.805Z,21.8
2017-10-09T14:04:18.313Z,21.7
2017-10-09T14:05:20.746Z,21.7
2017-10-09T14:06:23.517Z,21.6
2017-10-09T14:07:25.967Z,21.5
2017-10-09T14:08:28.403Z,21.5
2017-10-09T14:09:30.849Z,21.4
2017-10-09T14:10:33.287Z,21.2
2017-10-09T14:11:35.729Z,21.2